Time;durP1;ratioP1;P1;durP2;ratioP2;P2;SDS_P1;SDS_P2;PMS_P1;PMS_P2;Temp;Humidity;BMP_temperature;BMP_pressure;BME280_temperature;BME280_humidity;BME280_pressure;Samples;Min_cycle;Max_cycle;Signal;HPM_P1;HPM_P2
2023/02/09 00:01:11;;;;;;;11.80;4.87;;;-1.30;99.60;;;;;;5018594;28;20034;-64
2023/02/09 00:03:39;;;;;;;12.33;5.67;;;-1.40;99.70;;;;;;5020502;28;20034;-64
2023/02/09 00:06:06;;;;;;;11.70;4.40;;;-1.40;99.70;;;;;;5027861;28;20025;-65
2023/02/09 00:08:33;;;;;;;12.90;5.07;;;-1.40;99.90;;;;;;5025012;28;20045;-63
2023/02/09 00:10:58;;;;;;;11.17;5.13;;;-1.40;99.90;;;;;;5027251;28;20488;-64
2023/02/09 00:13:25;;;;;;;9.93;4.83;;;-1.40;99.90;;;;;;5026660;28;20080;-64
2023/02/09 00:15:56;;;;;;;14.47;5.00;;;-1.40;99.90;;;;;;5030842;28;20033;-66
2023/02/09 00:18:23;;;;;;;13.67;5.17;;;-1.40;99.90;;;;;;5010241;28;20029;-63
2023/02/09 00:20:56;;;;;;;11.63;5.13;;;-1.50;99.90;;;;;;5025890;28;20512;-64
2023/02/09 00:23:22;;;;;;;12.83;4.80;;;-1.60;99.90;;;;;;5027396;28;21820;-65
2023/02/09 00:25:47;;;;;;;13.70;5.37;;;-1.60;99.90;;;;;;5030196;28;20021;-65
2023/02/09 00:28:13;;;;;;;10.53;5.00;;;-1.70;99.90;;;;;;5021611;28;20028;-64
2023/02/09 00:30:39;;;;;;;13.50;6.90;;;-1.80;99.90;;;;;;5026988;28;20492;-64
2023/02/09 00:33:04;;;;;;;12.47;5.57;;;-1.80;99.90;;;;;;5025285;28;20566;-64
2023/02/09 00:35:30;;;;;;;11.47;4.93;;;-1.80;99.90;;;;;;5025974;28;20423;-65
2023/02/09 00:37:55;;;;;;;13.67;5.77;;;-1.80;99.90;;;;;;5013433;28;20029;-65
2023/02/09 00:40:21;;;;;;;17.90;5.60;;;-1.90;99.90;;;;;;5026112;28;20026;-64
2023/02/09 00:42:46;;;;;;;14.67;5.10;;;-1.80;99.90;;;;;;5018702;28;20514;-63
2023/02/09 00:45:12;;;;;;;16.33;6.03;;;-1.70;99.90;;;;;;5027587;28;20026;-64
2023/02/09 00:47:38;;;;;;;13.53;5.50;;;-1.80;99.90;;;;;;5016854;28;20076;-64
2023/02/09 00:50:05;;;;;;;15.30;5.23;;;-1.70;99.90;;;;;;5026147;28;20065;-65
2023/02/09 00:52:31;;;;;;;16.10;6.53;;;-1.70;99.90;;;;;;5026879;28;20021;-64
2023/02/09 00:54:57;;;;;;;12.17;6.03;;;-1.70;99.90;;;;;;5027537;28;20104;-64
2023/02/09 00:57:23;;;;;;;16.23;5.57;;;-1.80;99.90;;;;;;5027939;28;20116;-64
2023/02/09 00:59:49;;;;;;;13.40;6.07;;;-1.70;99.90;;;;;;5026992;28;20030;-64
2023/02/09 01:02:14;;;;;;;15.30;5.87;;;-1.80;99.90;;;;;;5030193;28;20026;-64
2023/02/09 01:04:40;;;;;;;19.80;6.30;;;-1.70;99.90;;;;;;5030479;28;20034;-63
2023/02/09 01:07:05;;;;;;;13.17;5.07;;;-1.70;99.90;;;;;;5029079;28;20499;-64
2023/02/09 01:09:31;;;;;;;13.63;6.23;;;-1.80;99.90;;;;;;5027969;28;20018;-64
2023/02/09 01:11:56;;;;;;;14.20;5.33;;;-1.80;99.90;;;;;;5026209;28;20384;-64
2023/02/09 01:14:23;;;;;;;12.03;5.43;;;-1.80;99.90;;;;;;5031775;28;20018;-63
2023/02/09 01:16:48;;;;;;;12.43;5.23;;;-1.90;99.90;;;;;;5028998;28;20020;-63
2023/02/09 01:19:14;;;;;;;15.37;6.00;;;-1.80;99.90;;;;;;5028523;28;20021;-64
2023/02/09 01:21:40;;;;;;;9.70;4.83;;;-1.80;99.90;;;;;;5009651;28;20512;-65
2023/02/09 01:24:06;;;;;;;17.57;6.17;;;-1.90;99.90;;;;;;5025116;28;20125;-64
2023/02/09 01:26:32;;;;;;;15.80;6.50;;;-1.90;99.90;;;;;;5020737;28;20147;-65
2023/02/09 01:28:58;;;;;;;12.10;5.50;;;-2.00;99.90;;;;;;5022276;28;20392;-63
2023/02/09 01:31:29;;;;;;;13.67;6.07;;;-2.00;99.90;;;;;;5027374;28;20029;-64
2023/02/09 01:33:57;;;;;;;13.17;5.63;;;-2.00;99.90;;;;;;5026443;28;20432;-63
2023/02/09 01:36:23;;;;;;;13.43;6.77;;;-2.00;99.90;;;;;;5028761;28;20155;-65
2023/02/09 01:38:49;;;;;;;23.87;6.40;;;-2.10;99.90;;;;;;5029372;28;20052;-64
2023/02/09 01:41:15;;;;;;;14.67;5.63;;;-2.00;99.90;;;;;;5022624;28;20037;-65
2023/02/09 01:43:47;;;;;;;16.03;5.83;;;-2.00;99.90;;;;;;5025028;28;20448;-64
2023/02/09 01:46:13;;;;;;;16.67;6.50;;;-2.20;99.90;;;;;;5022382;28;20039;-64
2023/02/09 01:48:39;;;;;;;14.40;6.07;;;-2.20;99.90;;;;;;5028190;28;20033;-64
2023/02/09 01:51:04;;;;;;;18.27;7.00;;;-2.30;99.90;;;;;;5006850;28;20041;-63
2023/02/09 01:53:31;;;;;;;10.27;5.33;;;-2.30;99.90;;;;;;5024446;28;20395;-64
2023/02/09 01:56:02;;;;;;;15.83;6.30;;;-2.30;99.90;;;;;;5018944;28;20029;-63
2023/02/09 01:58:28;;;;;;;13.13;5.50;;;-2.30;99.90;;;;;;5007226;28;20031;-64
2023/02/09 02:00:54;;;;;;;17.87;5.67;;;-2.20;99.90;;;;;;5027654;28;20028;-65
2023/02/09 02:03:23;;;;;;;12.97;6.67;;;-2.10;99.90;;;;;;5024620;28;20025;-64
2023/02/09 02:05:54;;;;;;;17.40;6.73;;;-2.00;99.90;;;;;;5025684;28;20022;-64
2023/02/09 02:08:25;;;;;;;24.00;7.10;;;-2.00;99.90;;;;;;5030201;28;20065;-64
2023/02/09 02:10:53;;;;;;;18.70;6.77;;;-2.00;99.90;;;;;;5020884;28;20026;-63
2023/02/09 02:13:19;;;;;;;19.43;6.73;;;-2.00;99.90;;;;;;4992028;28;20038;-65
2023/02/09 02:16:05;;;;;;;20.60;6.43;;;-2.00;99.90;;;;;;5005433;28;20497;-65
2023/02/09 02:18:51;;;;;;;13.13;6.03;;;-2.00;99.90;;;;;;5005680;28;20026;-64
2023/02/09 02:21:29;;;;;;;18.00;6.33;;;-2.00;99.90;;;;;;4989951;28;20112;-65
2023/02/09 02:24:03;;;;;;;13.93;6.07;;;-2.00;99.90;;;;;;5002158;28;20065;-64
2023/02/09 02:26:45;;;;;;;18.75;6.25;;;-2.10;99.90;;;;;;4999584;28;20060;-64
2023/02/09 02:29:21;;;;;;;17.53;5.70;;;-2.10;99.90;;;;;;5016516;28;20550;-64
2023/02/09 02:31:52;;;;;;;13.33;5.33;;;-2.20;99.90;;;;;;5023196;28;20037;-63
2023/02/09 02:34:37;;;;;;;17.33;6.27;;;-2.40;99.90;;;;;;5019055;28;20030;-63
2023/02/09 02:37:13;;;;;;;15.03;6.60;;;-2.40;99.90;;;;;;5003096;28;20026;-63
2023/02/09 02:39:54;;;;;;;12.13;5.93;;;-2.40;99.90;;;;;;5023085;28;20038;-63
2023/02/09 02:42:47;;;;;;;16.77;6.03;;;-2.40;99.90;;;;;;5026057;28;20420;-64
2023/02/09 02:45:34;;;;;;;24.03;6.47;;;-2.40;99.90;;;;;;5024152;28;20148;-64
2023/02/09 02:48:07;;;;;;;15.40;6.47;;;-2.50;99.90;;;;;;5003106;28;20036;-64
2023/02/09 02:50:36;;;;;;;16.47;6.27;;;-2.60;99.90;;;;;;5017761;28;20061;-63
2023/02/09 02:53:05;;;;;;;15.90;6.27;;;-2.60;99.90;;;;;;5004470;28;20026;-64
2023/02/09 02:55:32;;;;;;;18.47;6.60;;;-2.70;99.90;;;;;;5021308;28;20041;-63
2023/02/09 02:58:03;;;;;;;15.83;6.20;;;-2.70;99.90;;;;;;5021181;28;20045;-64
2023/02/09 03:00:38;;;;;;;13.90;5.53;;;-2.80;99.90;;;;;;5028094;28;20080;-64
2023/02/09 03:03:08;;;;;;;15.57;6.30;;;-2.80;99.90;;;;;;5011133;28;20029;-64
2023/02/09 03:05:35;;;;;;;15.23;7.83;;;-2.90;99.90;;;;;;5010030;28;20040;-64
2023/02/09 03:08:01;;;;;;;18.07;7.83;;;-2.90;99.90;;;;;;5019824;28;20046;-64
2023/02/09 03:10:34;;;;;;;18.13;6.87;;;-2.90;99.90;;;;;;5028459;28;20536;-64
2023/02/09 03:13:07;;;;;;;17.47;6.30;;;-2.80;99.90;;;;;;5027530;28;20031;-63
2023/02/09 03:15:48;;;;;;;14.90;6.18;;;-2.80;99.90;;;;;;5028926;28;20021;-65
2023/02/09 03:18:20;;;;;;;14.27;5.97;;;-2.80;99.90;;;;;;5026388;28;20429;-65
2023/02/09 03:20:55;;;;;;;15.93;7.10;;;-2.90;99.90;;;;;;5028867;28;20105;-64
2023/02/09 03:23:44;;;;;;;19.27;6.57;;;-2.90;99.90;;;;;;5021443;28;20033;-64
2023/02/09 03:26:16;;;;;;;15.10;6.07;;;-2.90;99.90;;;;;;5024449;28;20032;-64
2023/02/09 03:28:44;;;;;;;16.60;6.97;;;-2.90;99.90;;;;;;5027041;28;20025;-64
2023/02/09 03:31:10;;;;;;;16.57;6.47;;;-2.90;99.90;;;;;;5024642;28;20596;-64
2023/02/09 03:33:37;;;;;;;21.80;7.80;;;-2.90;99.90;;;;;;5025281;28;20026;-63
2023/02/09 03:36:08;;;;;;;15.20;6.13;;;-2.90;99.90;;;;;;5024982;28;20033;-64
2023/02/09 03:38:34;;;;;;;14.13;6.67;;;-2.90;99.90;;;;;;5022993;28;20029;-65
2023/02/09 03:40:59;;;;;;;13.73;6.30;;;-3.00;99.90;;;;;;5025707;28;20025;-63
2023/02/09 03:44:25;;;;;;;12.23;5.63;;;-3.00;99.90;;;;;;5023488;28;20057;-63
2023/02/09 03:46:11;;;;;;;21.20;7.33;;;-3.10;99.90;;;;;;5023819;28;20037;-64
2023/02/09 03:48:36;;;;;;;13.67;6.03;;;-3.20;99.90;;;;;;5005051;28;20021;-64
2023/02/09 03:51:02;;;;;;;15.77;7.17;;;-3.20;99.90;;;;;;5023016;28;20029;-64
2023/02/09 03:53:28;;;;;;;18.90;7.40;;;-3.30;99.90;;;;;;5026222;28;20100;-64
2023/02/09 03:55:53;;;;;;;14.80;6.47;;;-3.30;99.90;;;;;;5022795;28;20317;-63
2023/02/09 03:58:19;;;;;;;16.07;6.47;;;-3.20;99.90;;;;;;5024321;28;20021;-64
2023/02/09 04:00:44;;;;;;;18.00;7.17;;;-3.30;99.90;;;;;;5021607;28;20021;-64
2023/02/09 04:03:10;;;;;;;14.30;7.10;;;-3.20;99.90;;;;;;5023725;28;20026;-65
2023/02/09 04:05:35;;;;;;;22.17;8.17;;;-3.30;99.90;;;;;;5023409;28;20029;-65
2023/02/09 04:08:01;;;;;;;18.83;7.53;;;-3.30;99.90;;;;;;5028207;28;20086;-64
2023/02/09 04:10:27;;;;;;;14.43;6.37;;;-3.40;99.90;;;;;;5025040;28;20364;-63
2023/02/09 04:12:52;;;;;;;20.13;7.80;;;-3.40;99.90;;;;;;5009251;28;20036;-65
2023/02/09 04:15:18;;;;;;;22.50;7.40;;;-3.40;99.90;;;;;;5007968;28;20042;-64
2023/02/09 04:17:44;;;;;;;15.43;6.77;;;-3.40;99.90;;;;;;5026124;28;20029;-64
2023/02/09 04:20:09;;;;;;;15.90;6.97;;;-3.50;99.90;;;;;;5024009;28;20041;-63
2023/02/09 04:22:35;;;;;;;19.67;7.33;;;-3.60;99.90;;;;;;5026196;28;20682;-64
2023/02/09 04:25:01;;;;;;;18.90;7.20;;;-3.60;99.90;;;;;;5025404;28;20070;-63
2023/02/09 04:27:27;;;;;;;18.90;7.20;;;-3.50;99.90;;;;;;5025182;28;20128;-63
2023/02/09 04:29:52;;;;;;;18.63;6.83;;;-3.60;99.90;;;;;;5018213;28;20341;-64
2023/02/09 04:32:18;;;;;;;18.57;7.97;;;-3.60;99.90;;;;;;5020568;28;20068;-64
2023/02/09 04:34:43;;;;;;;19.83;7.67;;;-3.60;99.90;;;;;;5002981;28;20075;-63
2023/02/09 04:37:09;;;;;;;14.60;7.00;;;-3.60;99.90;;;;;;5026301;28;20029;-63
2023/02/09 04:39:34;;;;;;;17.90;7.83;;;-3.60;99.90;;;;;;5026884;28;20022;-64
2023/02/09 04:42:00;;;;;;;23.17;7.37;;;-3.60;99.90;;;;;;5027503;28;20641;-64
2023/02/09 04:44:26;;;;;;;16.40;7.20;;;-3.50;99.90;;;;;;5023831;28;20408;-63
2023/02/09 04:46:51;;;;;;;16.73;7.20;;;-3.50;99.90;;;;;;5026573;28;20157;-63
2023/02/09 04:49:17;;;;;;;14.27;6.93;;;-3.50;99.90;;;;;;5025159;28;20134;-63
2023/02/09 04:51:42;;;;;;;13.97;5.97;;;-3.50;99.90;;;;;;5021427;28;20059;-64
2023/02/09 04:54:08;;;;;;;17.53;7.67;;;-3.60;99.90;;;;;;5025785;28;20018;-64
2023/02/09 04:56:33;;;;;;;20.63;8.57;;;-3.60;99.90;;;;;;5025822;28;20024;-62
2023/02/09 05:01:43;;;;;;;18.13;7.22;;;-3.80;99.90;;;;;;5024070;28;20040;-64
2023/02/09 05:04:08;;;;;;;20.10;7.23;;;-3.80;99.90;;;;;;5029929;28;20037;-64
2023/02/09 05:06:34;;;;;;;18.60;7.97;;;-3.80;99.90;;;;;;5027268;28;20540;-65
2023/02/09 05:08:59;;;;;;;18.03;6.77;;;-3.80;99.90;;;;;;5009515;28;20452;-64
2023/02/09 05:11:25;;;;;;;17.90;7.67;;;-3.80;99.90;;;;;;5022591;28;20028;-65
2023/02/09 05:13:51;;;;;;;17.63;7.10;;;-3.70;99.90;;;;;;5023966;28;20144;-64
2023/02/09 05:16:16;;;;;;;13.57;6.73;;;-3.70;99.90;;;;;;5024997;28;20396;-64
2023/02/09 05:18:42;;;;;;;17.37;7.57;;;-3.70;99.90;;;;;;5026992;28;20026;-65
2023/02/09 05:21:08;;;;;;;19.30;8.67;;;-3.70;99.90;;;;;;5026747;28;20032;-65
2023/02/09 05:23:34;;;;;;;15.93;7.37;;;-3.70;99.90;;;;;;5028561;28;20034;-64
2023/02/09 05:25:59;;;;;;;17.80;7.47;;;-3.70;99.90;;;;;;5006744;28;20041;-63
2023/02/09 05:28:25;;;;;;;20.83;7.50;;;-3.60;99.90;;;;;;5023724;28;20108;-64
2023/02/09 05:30:52;;;;;;;17.93;8.13;;;-3.70;99.90;;;;;;5022410;28;20076;-65
2023/02/09 05:33:22;;;;;;;24.33;9.37;;;-3.70;99.90;;;;;;5027427;28;20060;-64
2023/02/09 05:35:49;;;;;;;23.63;9.37;;;-3.70;99.90;;;;;;5025429;28;20021;-64
2023/02/09 05:38:15;;;;;;;17.57;8.47;;;-3.70;99.90;;;;;;5066659;22;20061;-63
2023/02/09 05:40:40;;;;;;;20.50;8.60;;;-3.80;99.90;;;;;;5030490;28;20423;-65
2023/02/09 05:43:06;;;;;;;22.17;8.23;;;-3.80;99.90;;;;;;5045635;28;20071;-67
2023/02/09 05:45:31;;;;;;;29.90;11.80;;;-3.80;99.90;;;;;;5044166;28;20091;-66
2023/02/09 05:47:57;;;;;;;26.50;10.40;;;-3.80;99.90;;;;;;5047210;28;20108;-65
2023/02/09 05:50:23;;;;;;;25.37;10.17;;;-3.80;99.90;;;;;;5045941;28;20061;-67
2023/02/09 05:52:48;;;;;;;25.03;9.20;;;-3.80;99.90;;;;;;5043296;28;20502;-65
2023/02/09 05:55:14;;;;;;;31.93;11.67;;;-3.80;99.90;;;;;;5044099;28;20083;-67
2023/02/09 05:57:40;;;;;;;42.37;15.37;;;-3.80;99.90;;;;;;5043469;28;20021;-66
2023/02/09 06:00:06;;;;;;;27.00;8.97;;;-3.90;99.90;;;;;;5047226;28;20100;-66
2023/02/09 06:02:32;;;;;;;24.30;8.53;;;-3.90;99.90;;;;;;5046797;28;20048;-68
2023/02/09 06:04:57;;;;;;;31.93;10.80;;;-3.90;99.90;;;;;;5052346;28;20048;-66
2023/02/09 06:07:23;;;;;;;53.60;16.73;;;-4.00;99.90;;;;;;5047202;28;20096;-67
2023/02/09 06:09:48;;;;;;;45.53;16.23;;;-4.00;99.90;;;;;;5045350;28;20055;-66
2023/02/09 06:12:14;;;;;;;36.40;13.17;;;-4.10;99.90;;;;;;5028735;28;20025;-67
2023/02/09 06:14:39;;;;;;;42.13;15.33;;;-4.00;99.90;;;;;;5047475;28;20056;-67
2023/02/09 06:17:05;;;;;;;48.07;16.80;;;-4.00;99.90;;;;;;5053312;28;20025;-66
2023/02/09 06:19:30;;;;;;;46.07;16.50;;;-4.00;99.90;;;;;;5050158;28;20029;-67
2023/02/09 06:21:56;;;;;;;40.87;16.50;;;-4.00;99.90;;;;;;5030625;28;20484;-66
2023/02/09 06:24:21;;;;;;;41.13;17.03;;;-4.00;99.90;;;;;;5051800;28;20746;-67
2023/02/09 06:26:47;;;;;;;26.53;10.87;;;-4.00;99.90;;;;;;5049383;28;20047;-66
2023/02/09 06:29:13;;;;;;;28.50;10.37;;;-4.00;99.90;;;;;;5049129;28;20059;-66
2023/02/09 06:31:40;;;;;;;29.17;12.23;;;-4.00;99.90;;;;;;5011576;28;20066;-65
2023/02/09 06:34:06;;;;;;;27.03;10.57;;;-4.10;99.90;;;;;;5044872;28;20025;-66
2023/02/09 06:36:32;;;;;;;25.37;9.57;;;-4.10;99.90;;;;;;5043576;28;20037;-65
2023/02/09 06:38:58;;;;;;;21.40;9.63;;;-4.00;99.90;;;;;;5049236;28;20051;-68
2023/02/09 06:41:23;;;;;;;20.60;9.63;;;-4.00;99.90;;;;;;5051259;28;20105;-65
2023/02/09 06:43:49;;;;;;;26.33;9.50;;;-4.10;99.90;;;;;;5040570;28;20033;-67
2023/02/09 06:46:15;;;;;;;21.03;9.20;;;-4.00;99.90;;;;;;5039287;28;20025;-64
2023/02/09 06:48:40;;;;;;;21.97;8.53;;;-3.90;99.90;;;;;;5045073;28;20031;-65
2023/02/09 06:51:15;;;;;;;20.97;8.17;;;-3.80;99.90;;;;;;5045083;28;20060;-64
2023/02/09 06:53:42;;;;;;;26.03;8.87;;;-3.80;99.90;;;;;;5028818;28;20036;-66
2023/02/09 06:56:08;;;;;;;23.90;9.07;;;-3.80;99.90;;;;;;5034935;28;20107;-65
2023/02/09 06:58:35;;;;;;;20.50;8.73;;;-3.70;99.90;;;;;;5050006;28;20074;-65
2023/02/09 07:01:06;;;;;;;20.13;8.83;;;-3.80;99.90;;;;;;5045473;28;20040;-65
2023/02/09 07:03:32;;;;;;;23.60;9.73;;;-3.80;99.90;;;;;;5046626;28;20087;-65
2023/02/09 07:06:28;;;;;;;24.73;10.23;;;-3.80;99.90;;;;;;5044687;28;20534;-65
2023/02/09 07:08:54;;;;;;;22.87;10.80;;;-3.80;99.90;;;;;;5037157;28;20044;-65
2023/02/09 07:11:20;;;;;;;28.67;11.20;;;-3.70;99.90;;;;;;5048525;28;20476;-63
2023/02/09 07:13:46;;;;;;;22.90;8.30;;;-3.70;99.90;;;;;;5050809;28;20025;-64
2023/02/09 07:16:12;;;;;;;21.47;9.67;;;-3.70;99.90;;;;;;5045456;28;20539;-65
2023/02/09 07:18:38;;;;;;;27.87;10.50;;;-3.60;99.90;;;;;;5044425;28;20132;-65
2023/02/09 07:21:10;;;;;;;23.93;9.50;;;-3.50;99.90;;;;;;5041215;28;20049;-64
2023/02/09 07:23:36;;;;;;;20.73;9.13;;;-3.50;99.90;;;;;;5046129;28;20036;-64
2023/02/09 07:26:07;;;;;;;47.27;18.87;;;-3.40;99.90;;;;;;5047926;28;20380;-68
2023/02/09 07:28:34;;;;;;;23.97;10.50;;;-3.30;99.90;;;;;;5048729;28;20040;-64
2023/02/09 07:31:03;;;;;;;23.00;9.67;;;-3.20;99.90;;;;;;5034418;28;20411;-65
2023/02/09 07:33:29;;;;;;;27.00;10.07;;;-3.10;99.90;;;;;;5049647;28;20515;-65
2023/02/09 07:35:55;;;;;;;25.43;8.77;;;-3.00;99.90;;;;;;5045087;28;20036;-65
2023/02/09 07:38:20;;;;;;;23.17;9.13;;;-2.80;99.90;;;;;;5051107;28;20036;-65
2023/02/09 07:40:46;;;;;;;21.07;7.47;;;-2.80;99.90;;;;;;5047233;28;20485;-65
2023/02/09 07:43:12;;;;;;;17.80;8.33;;;-2.70;99.90;;;;;;5046578;28;20009;-65
2023/02/09 07:45:39;;;;;;;21.97;9.67;;;-2.70;99.90;;;;;;5030427;28;20044;-65
2023/02/09 07:48:05;;;;;;;21.03;9.23;;;-2.50;99.90;;;;;;5041742;28;20055;-65
2023/02/09 07:50:31;;;;;;;19.17;8.60;;;-2.40;99.90;;;;;;5039148;28;20563;-63
2023/02/09 07:52:57;;;;;;;30.07;14.17;;;-2.30;99.90;;;;;;5048619;28;20163;-64
2023/02/09 07:55:22;;;;;;;33.40;14.23;;;-2.20;99.90;;;;;;5048131;28;20021;-65
2023/02/09 07:57:48;;;;;;;21.20;9.43;;;-2.10;99.90;;;;;;5049606;28;20480;-64
2023/02/09 08:00:15;;;;;;;26.67;10.93;;;-2.00;99.90;;;;;;5048965;28;20028;-64
2023/02/09 08:02:42;;;;;;;22.27;8.77;;;-1.90;99.90;;;;;;5049099;28;20057;-65
2023/02/09 08:05:12;;;;;;;29.40;12.90;;;-1.80;99.90;;;;;;5045919;28;20032;-65
2023/02/09 08:07:38;;;;;;;20.53;9.67;;;-1.80;99.90;;;;;;5052400;28;20021;-67
2023/02/09 08:10:04;;;;;;;22.80;9.07;;;-1.70;99.90;;;;;;5048166;28;20028;-65
2023/02/09 08:15:19;;;;;;;18.37;7.53;;;-1.50;99.90;;;;;;5048308;28;20028;-65
2023/02/09 08:17:46;;;;;;;20.43;9.40;;;-1.40;99.90;;;;;;5050501;28;20104;-65
2023/02/09 08:20:17;;;;;;;19.97;7.93;;;-1.30;99.90;;;;;;5050289;28;20021;-65
2023/02/09 08:22:47;;;;;;;17.57;8.13;;;-1.20;99.90;;;;;;5049568;28;20029;-65
2023/02/09 08:25:15;;;;;;;22.73;9.87;;;-1.20;99.90;;;;;;5047567;28;20124;-65
2023/02/09 08:27:42;;;;;;;21.97;10.23;;;-1.10;99.90;;;;;;5043317;28;20025;-64
2023/02/09 08:30:09;;;;;;;23.37;10.17;;;-1.10;99.90;;;;;;5034408;28;20055;-64
2023/02/09 08:32:34;;;;;;;27.17;10.63;;;-0.90;99.90;;;;;;5049646;28;20024;-64
2023/02/09 08:35:00;;;;;;;21.87;10.00;;;-0.90;99.90;;;;;;5051211;28;20029;-65
2023/02/09 08:37:26;;;;;;;25.43;10.03;;;-0.80;99.90;;;;;;5053876;28;20024;-65
2023/02/09 08:39:51;;;;;;;19.40;9.60;;;-0.80;99.90;;;;;;5052440;28;20032;-67
2023/02/09 08:42:17;;;;;;;25.80;10.17;;;-0.70;99.90;;;;;;5053713;28;20060;-66
2023/02/09 08:44:42;;;;;;;28.20;9.50;;;-0.70;99.90;;;;;;5049381;28;20028;-65
2023/02/09 08:47:08;;;;;;;24.53;9.47;;;-0.60;99.90;;;;;;5051821;28;20017;-66
2023/02/09 08:49:34;;;;;;;25.50;9.43;;;-0.50;99.90;;;;;;5048303;28;20053;-66
2023/02/09 08:52:00;;;;;;;21.30;9.73;;;-0.40;99.90;;;;;;5059887;28;20158;-66
2023/02/09 08:54:25;;;;;;;22.07;10.27;;;-0.40;99.90;;;;;;5051726;28;20484;-65
2023/02/09 08:56:51;;;;;;;23.77;10.07;;;-0.40;99.90;;;;;;5051725;28;20017;-66
2023/02/09 08:59:17;;;;;;;24.17;8.53;;;-0.30;99.90;;;;;;5057445;28;20055;-66
2023/02/09 09:01:43;;;;;;;18.73;8.53;;;-0.20;99.90;;;;;;5051972;28;20491;-67
2023/02/09 09:04:09;;;;;;;32.40;16.40;;;-0.20;99.90;;;;;;5049940;28;20074;-65
2023/02/09 09:06:35;;;;;;;24.95;12.40;;;-0.10;99.90;;;;;;5047892;28;20032;-67
2023/02/09 09:09:01;;;;;;;21.92;10.82;;;0.00;99.90;;;;;;5051527;28;20132;-67
2023/02/09 09:11:26;;;;;;;21.23;9.60;;;0.10;99.90;;;;;;5044076;28;20088;-65
2023/02/09 09:13:52;;;;;;;21.80;9.50;;;0.20;99.90;;;;;;5033221;28;20021;-68
2023/02/09 09:16:20;;;;;;;18.15;8.43;;;0.30;99.90;;;;;;5051289;28;20043;-66
2023/02/09 09:18:47;;;;;;;20.35;9.25;;;0.30;99.90;;;;;;5048653;28;20028;-66
2023/02/09 09:21:15;;;;;;;19.52;9.57;;;0.40;99.90;;;;;;5051314;28;20131;-66
2023/02/09 09:23:41;;;;;;;23.65;10.32;;;0.40;99.90;;;;;;5051637;28;20029;-66
2023/02/09 09:26:07;;;;;;;23.17;10.13;;;0.50;99.90;;;;;;5043649;28;20111;-66
2023/02/09 09:28:32;;;;;;;19.83;9.93;;;0.60;99.90;;;;;;5047229;28;20594;-65
2023/02/09 09:31:04;;;;;;;21.73;10.93;;;0.70;99.90;;;;;;5043106;28;20036;-67
2023/02/09 09:33:33;;;;;;;26.88;9.55;;;0.70;99.90;;;;;;5050936;28;20074;-66
2023/02/09 09:36:00;;;;;;;19.23;8.73;;;0.70;99.90;;;;;;5046549;28;20031;-66
2023/02/09 09:38:25;;;;;;;68.07;26.00;;;0.90;99.90;;;;;;5049780;28;20025;-66
2023/02/09 09:40:52;;;;;;;45.28;18.25;;;0.90;99.90;;;;;;5050647;28;20020;-66
2023/02/09 09:43:22;;;;;;;34.30;12.63;;;1.00;99.90;;;;;;5057057;28;20036;-65
2023/02/09 09:45:48;;;;;;;27.63;13.05;;;1.10;99.90;;;;;;5050322;28;20029;-67
2023/02/09 09:48:22;;;;;;;24.33;10.23;;;1.40;99.90;;;;;;5048102;28;20519;-67
2023/02/09 09:50:55;;;;;;;23.02;9.57;;;1.80;99.90;;;;;;5043335;28;20040;-66
2023/02/09 09:53:33;;;;;;;29.17;11.02;;;2.00;99.90;;;;;;5046219;28;20022;-67
2023/02/09 09:56:05;;;;;;;21.17;9.98;;;2.40;99.70;;;;;;5052570;28;20156;-68
2023/02/09 09:58:32;;;;;;;21.33;9.70;;;2.90;98.70;;;;;;5049214;28;20100;-67
2023/02/09 10:00:58;;;;;;;19.75;9.82;;;3.40;98.00;;;;;;5046584;28;20029;-68
2023/02/09 10:03:24;;;;;;;20.35;10.40;;;3.50;97.40;;;;;;5046167;28;20063;-67
2023/02/09 10:05:59;;;;;;;21.85;9.85;;;3.50;96.80;;;;;;5043194;28;20025;-67
2023/02/09 10:08:28;;;;;;;21.23;10.07;;;3.50;97.20;;;;;;5052045;28;20028;-67
2023/02/09 10:11:01;;;;;;;24.77;14.35;;;3.40;97.30;;;;;;5032203;28;20488;-66
2023/02/09 10:13:39;;;;;;;22.63;10.73;;;3.50;96.60;;;;;;5049335;28;20013;-67
2023/02/09 10:16:25;;;;;;;21.85;9.68;;;3.50;96.60;;;;;;5048742;28;20474;-65
2023/02/09 10:18:56;;;;;;;18.25;8.40;;;3.70;95.90;;;;;;5050777;28;20393;-68
2023/02/09 10:21:24;;;;;;;20.23;9.57;;;3.60;96.00;;;;;;5049822;28;20495;-66
2023/02/09 10:24:08;;;;;;;20.73;9.95;;;3.80;95.70;;;;;;5049824;28;20103;-66
2023/02/09 10:26:35;;;;;;;;;;;3.50;95.70;;;;;;5045046;28;20021;-66
2023/02/09 10:29:10;;;;;;;21.92;9.13;;;3.40;96.30;;;;;;5056542;28;19912;-66
2023/02/09 10:32:02;;;;;;;26.35;10.18;;;3.30;95.60;;;;;;5046475;28;20025;-66
2023/02/09 10:34:41;;;;;;;18.17;9.05;;;3.20;96.40;;;;;;5045615;28;20023;-66
2023/02/09 10:37:18;;;;;;;18.83;8.50;;;3.20;96.70;;;;;;5051357;28;20051;-67
2023/02/09 10:39:49;;;;;;;23.05;9.25;;;3.30;96.40;;;;;;5045552;28;20033;-64
2023/02/09 10:42:31;;;;;;;22.77;9.00;;;3.20;96.60;;;;;;5043202;28;20017;-67
2023/02/09 10:45:20;;;;;;;21.10;8.80;;;3.30;96.50;;;;;;5044006;28;20090;-66
2023/02/09 10:48:12;;;;;;;21.60;9.52;;;3.30;96.10;;;;;;5042533;28;20033;-66
2023/02/09 10:51:05;;;;;;;20.63;9.18;;;3.40;96.40;;;;;;5024042;28;20045;-65
2023/02/09 10:53:32;;;;;;;21.17;9.38;;;3.60;96.40;;;;;;5047458;28;20506;-67
2023/02/09 10:56:04;;;;;;;20.83;9.23;;;3.60;95.80;;;;;;5048670;28;20135;-67
2023/02/09 10:58:33;;;;;;;22.17;9.02;;;3.60;96.20;;;;;;5050705;28;20438;-65
2023/02/09 11:01:24;;;;;;;23.05;9.77;;;3.70;96.00;;;;;;5045555;28;20112;-67
2023/02/09 11:04:15;;;;;;;19.75;8.77;;;3.80;96.00;;;;;;5044780;28;20062;-66
2023/02/09 11:06:55;;;;;;;28.23;9.57;;;3.80;95.30;;;;;;5045477;28;20510;-67
2023/02/09 11:09:28;;;;;;;18.92;9.50;;;3.80;95.50;;;;;;5051232;28;20518;-67
2023/02/09 11:11:54;;;;;;;24.95;12.57;;;3.90;95.70;;;;;;5046156;28;20504;-66
2023/02/09 11:14:21;;;;;;;23.67;11.48;;;4.00;95.10;;;;;;5048531;28;20060;-67
2023/02/09 11:17:01;;;;;;;18.85;8.82;;;4.10;94.60;;;;;;5044053;28;20044;-65
2023/02/09 11:19:30;;;;;;;17.70;8.93;;;4.10;94.70;;;;;;5048979;28;20037;-66
2023/02/09 11:22:29;;;;;;;21.65;9.35;;;4.20;95.10;;;;;;5048194;28;20060;-66
2023/02/09 11:25:22;;;;;;;18.30;8.30;;;4.20;95.00;;;;;;5045394;28;20420;-66
2023/02/09 11:27:56;;;;;;;18.67;8.23;;;4.30;95.10;;;;;;5048029;28;20029;-66
2023/02/09 11:30:47;;;;;;;21.70;8.80;;;4.30;95.10;;;;;;5038217;28;20037;-66
2023/02/09 11:33:21;;;;;;;19.05;9.45;;;4.50;94.70;;;;;;5038449;28;20029;-66
2023/02/09 11:35:58;;;;;;;20.48;9.82;;;4.50;94.60;;;;;;5043105;28;20035;-66
2023/02/09 11:38:49;;;;;;;21.67;9.13;;;4.30;94.40;;;;;;5044577;28;20021;-65
2023/02/09 11:44:35;;;;;;;27.00;9.60;;;4.30;94.60;;;;;;5044983;28;20113;-66
2023/02/09 11:47:05;;;;;;;17.55;8.00;;;4.30;94.50;;;;;;5049487;28;20033;-66
2023/02/09 11:49:49;;;;;;;18.80;8.68;;;4.40;94.60;;;;;;5044774;28;20030;-65
2023/02/09 11:52:28;;;;;;;;;;;4.50;95.10;;;;;;5043673;28;20025;-66
2023/02/09 11:55:00;;;;;;;16.58;7.63;;;4.50;94.50;;;;;;5036915;28;19951;-64
2023/02/09 11:57:40;;;;;;;20.52;8.05;;;4.50;94.30;;;;;;5042879;28;20047;-65
2023/02/09 12:00:16;;;;;;;18.95;8.85;;;4.50;94.30;;;;;;5044988;28;20029;-66
2023/02/09 12:03:09;;;;;;;21.25;9.02;;;4.60;94.10;;;;;;5048831;28;20384;-67
2023/02/09 12:05:36;;;;;;;23.30;8.70;;;4.60;93.80;;;;;;5046569;28;20067;-65
2023/02/09 12:08:21;;;;;;;23.85;9.07;;;4.60;94.00;;;;;;5051075;28;20032;-66
2023/02/09 12:11:06;;;;;;;22.67;10.43;;;4.70;93.80;;;;;;5048436;28;20083;-65
2023/02/09 12:13:38;;;;;;;21.95;9.25;;;4.70;93.40;;;;;;5052601;28;20023;-67
2023/02/09 12:16:29;;;;;;;21.23;9.73;;;4.70;92.90;;;;;;5047480;28;20027;-65
2023/02/09 12:18:55;;;;;;;17.52;7.68;;;4.70;93.50;;;;;;5051241;28;20025;-67
2023/02/09 12:21:37;;;;;;;20.13;8.55;;;4.70;93.20;;;;;;5049361;28;20104;-66
2023/02/09 12:24:25;;;;;;;36.28;14.00;;;4.90;92.80;;;;;;5047794;28;20021;-65
2023/02/09 12:26:54;;;;;;;17.75;8.05;;;4.70;92.80;;;;;;5049302;28;20031;-66
2023/02/09 12:29:36;;;;;;;19.70;8.85;;;4.60;92.70;;;;;;5052958;28;20399;-66
2023/02/09 12:32:05;;;;;;;24.38;9.80;;;4.70;92.70;;;;;;5050445;28;20020;-66
2023/02/09 12:34:34;;;;;;;17.80;8.23;;;4.70;92.80;;;;;;5049230;28;20028;-65
2023/02/09 12:37:13;;;;;;;17.88;7.18;;;4.80;92.80;;;;;;5046891;28;20549;-67
2023/02/09 12:40:10;;;;;;;14.40;6.93;;;4.80;91.80;;;;;;5046316;28;20037;-66
2023/02/09 12:42:40;;;;;;;15.57;6.68;;;4.80;92.30;;;;;;5046472;28;20031;-66
2023/02/09 12:45:28;;;;;;;16.63;7.50;;;4.80;92.20;;;;;;5041011;28;20393;-67
2023/02/09 12:47:57;;;;;;;18.30;7.85;;;4.80;92.10;;;;;;5045394;28;20060;-67
2023/02/09 12:50:48;;;;;;;15.40;6.97;;;4.80;92.00;;;;;;5047439;28;20033;-67
2023/02/09 12:53:23;;;;;;;14.30;7.22;;;4.80;91.90;;;;;;5041355;28;20033;-66
2023/02/09 12:56:22;;;;;;;18.02;8.40;;;4.70;92.10;;;;;;5045230;28;20027;-65
2023/02/09 12:58:48;;;;;;;14.63;7.32;;;4.70;92.80;;;;;;5043617;28;20034;-67
2023/02/09 13:01:15;;;;;;;12.75;7.43;;;4.70;92.70;;;;;;5043907;28;20431;-67